• Join FlightAware (Why Join?)
  • Login
  • US Flag 
11:20AM EDT


 

Airport Tracker/Info


-or-


 

Live Flight TrackerFlight Track Log ✈ N63981 ✈ 29-Oct-2013 ✈ KALB - 2G9

Flight Track Log - Related Links

Times and Time Zones

All times are in EDT time to prevent confusion due to time zone crossing. See the N63981 flight status page for this flight to view local times or setup timezone preferences in your user account.

Time Position Orientation Groundspeed Altitude Reporting Facility
EDT Latitude Longitude Course Direction KTS MPH feet Rate Location/Type
03:00PM 42.7700 -73.8067 North 126 145 900  Level Boston Center
03:00PM 42.7831 -73.8053 North 127 146 1,200 600 Climbing Boston Center
03:01PM 42.8017 -73.8136 342° North 119 137 1,600 540 Climbing Boston Center
03:01PM 42.8022 -73.8292 273° West 119 137 1,800 540 Climbing Boston Center
03:02PM 42.7861 -73.8503 224° Southwest 122 140 2,200 660 Climbing Boston Center
03:02PM 42.7786 -73.8647 235° Southwest 122 140 2,500 780 Climbing Boston Center
03:03PM 42.7617 -73.8858 222° Southwest 121 139 3,000 660 Climbing Boston Center
03:03PM 42.7553 -73.8978 234° Southwest 124 143 3,200 360 Climbing Boston Center
03:04PM 42.7378 -73.9219 225° Southwest 128 147 3,400 360 Climbing Boston Center
03:04PM 42.7289 -73.9356 228° Southwest 134 154 3,600 660 Climbing Boston Center
03:05PM 42.7117 -73.9628 229° Southwest 134 154 4,100 480 Climbing Boston Center
03:05PM 42.7047 -73.9739 230° Southwest 133 153 4,100 480 Level Boston Center
03:06PM 42.6911 -74.0019 237° Southwest 127 146 4,600 540 Climbing Boston Center
03:06PM 42.6850 -74.0108 227° Southwest 128 147 4,700 660 Climbing Boston Center
03:07PM 42.6694 -74.0406 235° Southwest 129 148 5,300 660 Climbing Boston Center
03:07PM 42.6622 -74.0525 231° Southwest 128 147 5,400 540 Climbing Boston Center
03:08PM 42.6456 -74.0817 232° Southwest 129 148 5,900 600 Climbing Boston Center
03:08PM 42.6400 -74.0914 232° Southwest 128 147 6,000 60 Climbing Boston Center
03:09PM 42.6219 -74.1211 230° Southwest 135 155 6,000  Level Boston Center
03:09PM 42.6150 -74.1325 230° Southwest 141 162 6,000  Level Boston Center
03:10PM 42.5978 -74.1700 238° Southwest 153 176 6,000  Level Boston Center
03:10PM 42.5906 -74.1822 231° Southwest 159 183 6,000 60 Level Boston Center
03:11PM 42.5661 -74.2319 236° Southwest 159 183 6,100  Climbing Boston Center
03:12PM 42.5439 -74.2692 231° Southwest 158 182 6,000  Descending Boston Center
03:13PM 42.5189 -74.3133 232° Southwest 148 170 6,100  Climbing Boston Center
03:14PM 42.4942 -74.3650 237° Southwest 151 174 6,000 -60 Descending Boston Center
03:15PM 42.4706 -74.4131 236° Southwest 154 177 6,000  Level Boston Center
03:17PM 42.4181 -74.5089 233° Southwest 153 176 6,100  Climbing Boston Center
03:18PM 42.3917 -74.5547 232° Southwest 153 176 6,000 -60 Descending Boston Center
03:19PM 42.3672 -74.5986 233° Southwest 149 171 6,000  Level Boston Center
03:20PM 42.3414 -74.6453 233° Southwest 145 167 6,100  Climbing Boston Center
03:21PM 42.3228 -74.6825 236° Southwest 144 166 6,100  Level Boston Center
03:22PM 42.2969 -74.7364 237° Southwest 143 165 6,100  Level Boston Center
03:23PM 42.2742 -74.7811 235° Southwest 144 166 6,100  Level Boston Center
03:24PM 42.2494 -74.8231 231° Southwest 143 165 6,100 -60 Level Boston Center
03:25PM 42.2258 -74.8653 233° Southwest 142 163 6,000 -60 Descending Boston Center
03:26PM 42.2008 -74.9106 233° Southwest 147 169 6,000  Level Boston Center
03:27PM 42.1756 -74.9558 233° Southwest 148 170 6,100  Climbing Boston Center
03:28PM 42.1528 -75.0008 236° Southwest 148 170 6,100 -60 Level Boston Center
03:29PM 42.1314 -75.0447 237° Southwest 145 167 6,000 -60 Descending Boston Center
03:30PM 42.1108 -75.0861 236° Southwest 141 162 6,000  Level Boston Center
03:31PM 42.0858 -75.1406 238° Southwest 145 167 6,100  Climbing Boston Center
03:32PM 42.0625 -75.1853 235° Southwest 148 170 6,100 -60 Level Boston Center
03:33PM 42.0389 -75.2300 235° Southwest 146 168 6,000 -60 Descending Boston Center
03:34PM 42.0178 -75.2753 238° Southwest 144 166 6,000  Level Boston Center
03:35PM 41.9922 -75.3292 237° Southwest 143 165 6,000  Level Boston Center
03:36PM 41.9694 -75.3742 236° Southwest 144 166 6,000 -60 Level Boston Center
03:37PM 41.9475 -75.4156 235° Southwest 139 160 5,900  Descending Boston Center
03:39PM 41.9242 -75.4581 234° Southwest 140 161 6,000  Climbing Boston Center
03:40PM 41.9025 -75.5039 238° Southwest 144 166 6,000  Level Boston Center
03:41PM 41.8814 -75.5500 238° Southwest 145 167 6,100  Climbing Boston Center
03:42PM 41.8581 -75.5939 234° Southwest 145 167 6,100  Level Boston Center
03:43PM 41.8358 -75.6342 233° Southwest 140 161 6,100 -60 Level Boston Center
03:44PM 41.8144 -75.6778 237° Southwest 140 161 6,000  Descending Boston Center
03:45PM 41.7886 -75.7289 236° Southwest 139 160 6,100  Climbing Boston Center
03:46PM 41.7672 -75.7725 237° Southwest 139 160 6,100 -60 Level Boston Center
03:47PM 41.7450 -75.8161 236° Southwest 140 161 6,000 -60 Descending Boston Center
03:48PM 41.7225 -75.8575 234° Southwest 139 160 6,000  Level Boston Center
03:49PM 41.6933 -75.9128 235° Southwest 146 168 6,000  Level New York Center
03:50PM 41.6725 -75.9583 239° Southwest 146 168 6,000 -60 Level New York Center
03:51PM 41.6500 -76.0011 235° Southwest 146 168 5,900  Descending New York Center
03:52PM 41.6294 -76.0383 234° Southwest 141 162 6,000  Climbing New York Center
03:53PM 41.6047 -76.0836 234° Southwest 141 162 6,000 -60 Level New York Center
03:54PM 41.5861 -76.1264 240° Southwest 141 162 5,900  Descending New York Center
03:55PM 41.5656 -76.1664 236° Southwest 141 162 6,000  Climbing New York Center
03:56PM 41.5472 -76.2008 235° Southwest 136 157 6,000  Level New York Center
03:57PM 41.5264 -76.2436 237° Southwest 136 157 6,000  Level New York Center
03:58PM 41.5036 -76.2889 236° Southwest 136 157 6,000  Level New York Center
03:59PM 41.4811 -76.3258 231° Southwest 136 157 6,000 -60 Level New York Center
04:00PM 41.4603 -76.3683 237° Southwest 136 157 5,900 -60 Descending New York Center
04:01PM 41.4419 -76.4056 237° Southwest 136 157 5,900  Level New York Center
04:02PM 41.4231 -76.4508 241° Southwest 136 157 6,000  Climbing New York Center
04:03PM 41.4064 -76.4939 243° Southwest 136 157 6,000  Level New York Center
04:04PM 41.3881 -76.5308 237° Southwest 131 151 6,000  Level New York Center
04:05PM 41.3697 -76.5653 235° Southwest 131 151 6,000  Level New York Center
04:06PM 41.3492 -76.6022 233° Southwest 126 145 6,000  Level New York Center
04:07PM 41.3242 -76.6417 230° Southwest 121 139 6,000  Level New York Center
04:08PM 41.3061 -76.6703 230° Southwest 126 145 6,000  Level New York Center
04:09PM 41.2850 -76.7156 238° Southwest 126 145 6,000  Level New York Center
04:10PM 41.2667 -76.7525 237° Southwest 126 145 6,000  Level New York Center
04:11PM 41.2481 -76.7894 236° Southwest 126 145 6,000  Level New York Center
04:12PM 41.2272 -76.8292 235° Southwest 126 145 6,000 -60 Level New York Center
04:13PM 41.1950 -76.8894 235° Southwest 125 144 5,900 -60 Descending Cleveland Center
04:14PM 41.1753 -76.9269 235° Southwest 125 144 5,900  Level Cleveland Center
04:15PM 41.1567 -76.9661 238° Southwest 126 145 5,900  Level Cleveland Center
04:17PM 41.1386 -77.0042 238° Southwest 124 143 5,900  Level Cleveland Center
04:18PM 41.1200 -77.0428 237° Southwest 125 144 5,900  Level Cleveland Center
04:19PM 41.0953 -77.0886 234° Southwest 126 145 5,900  Level Cleveland Center
04:20PM 41.0742 -77.1278 234° Southwest 128 147 6,000  Climbing Cleveland Center
04:21PM 41.0531 -77.1678 235° Southwest 130 150 6,000  Level Cleveland Center
04:22PM 41.0322 -77.2075 235° Southwest 132 152 6,000  Level Cleveland Center
04:23PM 41.0125 -77.2464 236° Southwest 130 150 6,000  Level Cleveland Center
04:24PM 40.9875 -77.2928 234° Southwest 129 148 6,000  Level Cleveland Center
04:25PM 40.9589 -77.3244 220° Southwest 130 150 6,000  Level Cleveland Center
04:26PM 40.9319 -77.3592 224° Southwest 132 152 6,000  Level Cleveland Center
04:27PM 40.9086 -77.4078 238° Southwest 142 163 6,000  Level New York Center
04:28PM 40.8917 -77.4500 242° Southwest 142 163 6,000  Level New York Center
04:29PM 40.8725 -77.4947 240° Southwest 142 163 6,000  Level New York Center
04:30PM 40.8514 -77.5367 236° Southwest 142 163 6,000  Level New York Center
04:31PM 40.8283 -77.5756 232° Southwest 137 158 6,000  Level New York Center
04:32PM 40.8050 -77.6169 233° Southwest 137 158 6,000  Level New York Center
04:33PM 40.7819 -77.6586 234° Southwest 137 158 6,000  Level New York Center
04:34PM 40.7608 -77.6975 234° Southwest 142 163 6,000  Level New York Center
04:35PM 40.7397 -77.7364 234° Southwest 142 163 6,000  Level New York Center
04:37PM 40.6864 -77.8328 234° Southwest 139 160 6,000  Level Cleveland Center
04:38PM 40.6642 -77.8708 232° Southwest 136 157 6,000  Level Cleveland Center
04:39PM 40.6414 -77.9094 232° Southwest 134 154 6,000  Level Cleveland Center
04:40PM 40.6153 -77.9600 236° Southwest 137 158 6,000  Level Cleveland Center
04:41PM 40.5931 -78.0008 234° Southwest 138 159 6,000 -60 Level Cleveland Center
04:42PM 40.5742 -78.0369 235° Southwest 137 158 5,900  Descending Cleveland Center
04:42PM 40.5739 -78.0414 265° West 135 155 6,000  Climbing Cleveland Center
04:43PM 40.5503 -78.0806 232° Southwest 136 157 5,900  Descending Cleveland Center
04:43PM 40.5519 -78.0808 353° North 134 154 6,000 120 Climbing Cleveland Center
04:44PM 40.5333 -78.1086 229° Southwest 130 150 6,000 60 Level Cleveland Center
04:44PM 40.5306 -78.1181 249° West 132 152 6,100 -120 Climbing Cleveland Center
04:45PM 40.5114 -78.1497 231° Southwest 130 150 5,900  Descending Cleveland Center
04:45PM 40.5056 -78.1664 245° Southwest 132 152 6,100  Climbing Cleveland Center
04:46PM 40.4919 -78.1883 231° Southwest 131 151 5,900  Descending Cleveland Center
04:47PM 40.4844 -78.2031 236° Southwest 130 150 6,100 60 Climbing Cleveland Center
04:47PM 40.4703 -78.2267 232° Southwest 131 151 6,000 -120 Descending Cleveland Center
04:48PM 40.4639 -78.2419 241° Southwest 129 148 6,000  Level Cleveland Center
04:48PM 40.4483 -78.2650 228° Southwest 131 151 6,000  Level Cleveland Center
04:49PM 40.4422 -78.2811 244° Southwest 130 150 6,000 -120 Level Cleveland Center
04:49PM 40.4264 -78.3089 233° Southwest 136 157 5,900  Descending Cleveland Center
04:50PM 40.4197 -78.3208 234° Southwest 133 153 6,000  Climbing Cleveland Center
04:50PM 40.4044 -78.3472 233° Southwest 135 155 5,900  Descending Cleveland Center
04:51PM 40.3942 -78.3683 237° Southwest 134 154 6,000 60 Climbing Cleveland Center
04:51PM 40.3828 -78.3853 229° Southwest 134 154 6,000  Level Cleveland Center
04:52PM 40.3722 -78.4078 238° Southwest 134 154 6,000  Level Cleveland Center
04:52PM 40.3608 -78.4264 231° Southwest 135 155 6,000  Level Cleveland Center
04:53PM 40.3508 -78.4522 243° Southwest 138 159 6,000 -120 Level Cleveland Center
04:53PM 40.3386 -78.4700 228° Southwest 137 158 5,900  Descending Cleveland Center
04:54PM 40.3283 -78.4900 236° Southwest 130 150 6,000 60 Climbing Cleveland Center
04:54PM 40.3186 -78.5111 239° Southwest 135 155 6,000  Level Cleveland Center
04:55PM 40.3067 -78.5303 231° Southwest 131 151 6,000 -120 Level Cleveland Center
04:55PM 40.2967 -78.5492 235° Southwest 133 153 5,900  Descending Cleveland Center
04:56PM 40.2814 -78.5789 236° Southwest 131 151 6,000  Climbing Cleveland Center
04:56PM 40.2750 -78.5847 215° Southwest 138 159 5,900  Descending Cleveland Center
04:57PM 40.2600 -78.6203 241° Southwest 135 155 6,000  Climbing Cleveland Center
04:57PM 40.2550 -78.6286 232° Southwest 139 160 5,900  Descending Cleveland Center
04:58PM 40.2386 -78.6625 238° Southwest 137 158 6,000 60 Climbing Cleveland Center
04:58PM 40.2331 -78.6667 210° Southwest 136 157 6,000 60 Level Cleveland Center
04:59PM 40.2175 -78.7017 240° Southwest 134 154 6,100 -120 Climbing Cleveland Center
04:59PM 40.2108 -78.7100 224° Southwest 135 155 5,900 -300 Descending Cleveland Center
05:00PM 40.1867 -78.7478 230° Southwest 134 154 5,800 -180 Descending Cleveland Center
05:01PM 40.1681 -78.7856 237° Southwest 132 152 5,600 -300 Descending Cleveland Center
05:01PM 40.1647 -78.7858 184° South 127 146 5,500 -600 Descending Cleveland Center
05:02PM 40.1475 -78.8189 236° Southwest 111 128 5,000 -360 Descending Cleveland Center
05:03PM 40.1347 -78.8475 240° Southwest 113 130 4,800 -240 Descending Cleveland Center
05:05PM 40.0997 -78.9003 229° Southwest  Level FlightAware Approximate
05:12PM 40.0333 -79.0000 232° Southwest  Level FlightAware Approximate
05:13PM 40.0389 -79.0150 232° Southwest  Level Estimated